KMQE

East Milton Airport

Massachusetts, USA
METAR KMQE 201856Z AUTO 27012KT 15/07 A2957 RMK AO1 SLP023 T01500072
Observed Flight Rules
Oct-20 @ 18:56 UTC (25 minutes ago)
Wind
270° at 12 knots
Temperatures Readings
Current 15°C / 59°F
Dewpoint 7°C / 45°F
Humidity 59%
Altimeter 29.57" Hg
Pressure 1002.3 hPa
Elevation 199
METAR KMQE 201856Z AUTO 27012KT 15/07 A2957 RMK AO1 SLP023 T01500072
Observed Flight Rules
Oct-20 @ 18:56 UTC
(25 minutes ago)
Wind
270° at 12 knots
Temperature Dewpoint
15°C / 59°F 7°C / 45°F
Humidity Altimeter Pressure
59% 29.57" Hg 1002.3 hPa